sensor_id;sensor_type;location;lat;lon;timestamp;temperature;humidity
12815;DHT22;6472;52.328;13.070;2023-05-14T00:01:46;8.90;99.90
12815;DHT22;6472;52.328;13.070;2023-05-14T00:04:14;8.90;99.90
12815;DHT22;6472;52.328;13.070;2023-05-14T00:06:42;8.90;99.90
12815;DHT22;6472;52.328;13.070;2023-05-14T00:09:11;8.90;99.90
12815;DHT22;6472;52.328;13.070;2023-05-14T00:11:39;8.90;99.90
12815;DHT22;6472;52.328;13.070;2023-05-14T00:14:07;9.00;99.90
12815;DHT22;6472;52.328;13.070;2023-05-14T00:16:35;8.90;99.90
12815;DHT22;6472;52.328;13.070;2023-05-14T00:19:04;8.90;99.90
12815;DHT22;6472;52.328;13.070;2023-05-14T00:21:32;9.00;99.90
12815;DHT22;6472;52.328;13.070;2023-05-14T00:24:00;9.00;99.90
12815;DHT22;6472;52.328;13.070;2023-05-14T00:26:29;9.00;99.90
12815;DHT22;6472;52.328;13.070;2023-05-14T00:28:57;9.00;99.90
12815;DHT22;6472;52.328;13.070;2023-05-14T00:31:25;9.00;99.90
12815;DHT22;6472;52.328;13.070;2023-05-14T00:33:53;9.00;99.90
12815;DHT22;6472;52.328;13.070;2023-05-14T00:36:21;9.00;99.90
12815;DHT22;6472;52.328;13.070;2023-05-14T00:38:49;8.90;99.90
12815;DHT22;6472;52.328;13.070;2023-05-14T00:41:17;8.90;99.90
12815;DHT22;6472;52.328;13.070;2023-05-14T00:43:46;8.90;99.90
12815;DHT22;6472;52.328;13.070;2023-05-14T00:46:15;8.90;99.90
12815;DHT22;6472;52.328;13.070;2023-05-14T00:48:43;8.80;99.90
12815;DHT22;6472;52.328;13.070;2023-05-14T00:51:11;8.80;99.90
12815;DHT22;6472;52.328;13.070;2023-05-14T00:53:40;8.80;99.90
12815;DHT22;6472;52.328;13.070;2023-05-14T00:56:08;8.70;99.90
12815;DHT22;6472;52.328;13.070;2023-05-14T00:58:36;8.70;99.90
12815;DHT22;6472;52.328;13.070;2023-05-14T01:01:06;8.70;99.90
12815;DHT22;6472;52.328;13.070;2023-05-14T01:03:35;8.60;99.90
12815;DHT22;6472;52.328;13.070;2023-05-14T01:06:08;8.60;99.90
12815;DHT22;6472;52.328;13.070;2023-05-14T01:08:44;8.50;99.90
12815;DHT22;6472;52.328;13.070;2023-05-14T01:11:18;8.50;99.90
12815;DHT22;6472;52.328;13.070;2023-05-14T01:13:56;8.50;99.90
12815;DHT22;6472;52.328;13.070;2023-05-14T01:16:28;8.50;99.90
12815;DHT22;6472;52.328;13.070;2023-05-14T01:18:59;8.40;99.90
12815;DHT22;6472;52.328;13.070;2023-05-14T01:21:38;8.30;99.90
12815;DHT22;6472;52.328;13.070;2023-05-14T01:24:06;8.30;99.90
12815;DHT22;6472;52.328;13.070;2023-05-14T01:26:35;8.20;99.90
12815;DHT22;6472;52.328;13.070;2023-05-14T01:29:10;8.20;99.90
12815;DHT22;6472;52.328;13.070;2023-05-14T01:31:42;8.20;99.90
12815;DHT22;6472;52.328;13.070;2023-05-14T01:34:13;8.10;99.90
12815;DHT22;6472;52.328;13.070;2023-05-14T01:36:44;8.00;99.90
12815;DHT22;6472;52.328;13.070;2023-05-14T01:39:14;8.00;99.90
12815;DHT22;6472;52.328;13.070;2023-05-14T01:41:43;8.00;99.90
12815;DHT22;6472;52.328;13.070;2023-05-14T01:44:12;7.90;99.90
12815;DHT22;6472;52.328;13.070;2023-05-14T01:46:40;7.90;99.90
12815;DHT22;6472;52.328;13.070;2023-05-14T01:49:09;7.80;99.90
12815;DHT22;6472;52.328;13.070;2023-05-14T01:51:36;7.80;99.90
12815;DHT22;6472;52.328;13.070;2023-05-14T01:54:06;7.70;99.90
12815;DHT22;6472;52.328;13.070;2023-05-14T01:56:34;7.70;99.90
12815;DHT22;6472;52.328;13.070;2023-05-14T01:59:02;7.60;99.90
12815;DHT22;6472;52.328;13.070;2023-05-14T02:01:30;7.60;99.90
12815;DHT22;6472;52.328;13.070;2023-05-14T02:03:58;7.50;99.90
12815;DHT22;6472;52.328;13.070;2023-05-14T02:06:26;7.50;99.90
12815;DHT22;6472;52.328;13.070;2023-05-14T02:08:54;7.40;99.90
12815;DHT22;6472;52.328;13.070;2023-05-14T02:11:24;7.40;99.90
12815;DHT22;6472;52.328;13.070;2023-05-14T02:13:52;7.40;99.90
12815;DHT22;6472;52.328;13.070;2023-05-14T02:16:20;7.30;99.90
12815;DHT22;6472;52.328;13.070;2023-05-14T02:18:48;7.30;99.90
12815;DHT22;6472;52.328;13.070;2023-05-14T02:21:16;7.20;99.90
12815;DHT22;6472;52.328;13.070;2023-05-14T02:23:44;7.20;99.90
12815;DHT22;6472;52.328;13.070;2023-05-14T02:26:14;7.20;99.90
12815;DHT22;6472;52.328;13.070;2023-05-14T02:28:43;7.10;99.90
12815;DHT22;6472;52.328;13.070;2023-05-14T02:31:11;7.10;99.90
12815;DHT22;6472;52.328;13.070;2023-05-14T02:33:40;7.10;99.90
12815;DHT22;6472;52.328;13.070;2023-05-14T02:36:08;7.00;99.90
12815;DHT22;6472;52.328;13.070;2023-05-14T02:38:35;7.00;99.90
12815;DHT22;6472;52.328;13.070;2023-05-14T02:41:03;7.00;99.90
12815;DHT22;6472;52.328;13.070;2023-05-14T02:43:31;7.00;99.90
12815;DHT22;6472;52.328;13.070;2023-05-14T02:46:01;7.00;99.90
12815;DHT22;6472;52.328;13.070;2023-05-14T02:48:29;7.00;99.90
12815;DHT22;6472;52.328;13.070;2023-05-14T02:50:57;6.90;99.90
12815;DHT22;6472;52.328;13.070;2023-05-14T02:53:25;6.90;99.90
12815;DHT22;6472;52.328;13.070;2023-05-14T02:55:53;6.90;99.90
12815;DHT22;6472;52.328;13.070;2023-05-14T02:58:21;6.90;99.90
12815;DHT22;6472;52.328;13.070;2023-05-14T03:00:54;6.90;99.90
12815;DHT22;6472;52.328;13.070;2023-05-14T03:03:24;6.80;99.90
12815;DHT22;6472;52.328;13.070;2023-05-14T03:05:52;6.80;99.90
12815;DHT22;6472;52.328;13.070;2023-05-14T03:08:20;6.80;99.90
12815;DHT22;6472;52.328;13.070;2023-05-14T03:10:48;6.70;99.90
12815;DHT22;6472;52.328;13.070;2023-05-14T03:13:17;6.70;99.90
12815;DHT22;6472;52.328;13.070;2023-05-14T03:15:46;6.70;99.90
12815;DHT22;6472;52.328;13.070;2023-05-14T03:18:14;6.70;99.90
12815;DHT22;6472;52.328;13.070;2023-05-14T03:20:44;6.70;99.90
12815;DHT22;6472;52.328;13.070;2023-05-14T03:23:12;6.80;99.90
12815;DHT22;6472;52.328;13.070;2023-05-14T03:25:40;6.90;99.90
12815;DHT22;6472;52.328;13.070;2023-05-14T03:28:08;6.90;99.90
12815;DHT22;6472;52.328;13.070;2023-05-14T03:30:36;6.90;99.90
12815;DHT22;6472;52.328;13.070;2023-05-14T03:33:04;7.00;99.90
12815;DHT22;6472;52.328;13.070;2023-05-14T03:35:33;7.10;99.90
12815;DHT22;6472;52.328;13.070;2023-05-14T03:38:02;7.10;99.90
12815;DHT22;6472;52.328;13.070;2023-05-14T03:40:30;7.20;99.90
12815;DHT22;6472;52.328;13.070;2023-05-14T03:42:58;7.30;99.90
12815;DHT22;6472;52.328;13.070;2023-05-14T03:45:26;7.40;99.90
12815;DHT22;6472;52.328;13.070;2023-05-14T03:47:56;7.40;99.90
12815;DHT22;6472;52.328;13.070;2023-05-14T03:50:24;7.50;99.90
12815;DHT22;6472;52.328;13.070;2023-05-14T03:52:52;7.60;99.90
12815;DHT22;6472;52.328;13.070;2023-05-14T03:55:22;7.70;99.90
12815;DHT22;6472;52.328;13.070;2023-05-14T03:57:50;7.90;99.90
12815;DHT22;6472;52.328;13.070;2023-05-14T04:00:18;8.00;99.90
12815;DHT22;6472;52.328;13.070;2023-05-14T04:02:47;8.00;99.90
12815;DHT22;6472;52.328;13.070;2023-05-14T04:05:15;8.20;99.90
12815;DHT22;6472;52.328;13.070;2023-05-14T04:07:43;8.30;99.90
12815;DHT22;6472;52.328;13.070;2023-05-14T04:10:12;8.40;99.90
12815;DHT22;6472;52.328;13.070;2023-05-14T04:12:41;8.60;99.90
12815;DHT22;6472;52.328;13.070;2023-05-14T04:15:10;8.70;99.90
12815;DHT22;6472;52.328;13.070;2023-05-14T04:17:38;8.80;99.90
12815;DHT22;6472;52.328;13.070;2023-05-14T04:20:07;8.90;99.90
12815;DHT22;6472;52.328;13.070;2023-05-14T04:22:35;9.10;99.90
12815;DHT22;6472;52.328;13.070;2023-05-14T04:25:03;9.20;99.90
12815;DHT22;6472;52.328;13.070;2023-05-14T04:27:32;9.30;99.90
12815;DHT22;6472;52.328;13.070;2023-05-14T04:30:02;9.40;99.90
12815;DHT22;6472;52.328;13.070;2023-05-14T04:32:30;9.50;99.90
12815;DHT22;6472;52.328;13.070;2023-05-14T04:34:58;9.70;99.90
12815;DHT22;6472;52.328;13.070;2023-05-14T04:37:26;9.80;99.90
12815;DHT22;6472;52.328;13.070;2023-05-14T04:39:54;10.00;99.90
12815;DHT22;6472;52.328;13.070;2023-05-14T04:42:22;10.20;99.90
12815;DHT22;6472;52.328;13.070;2023-05-14T04:44:51;10.40;99.90
12815;DHT22;6472;52.328;13.070;2023-05-14T04:47:20;10.50;99.90
12815;DHT22;6472;52.328;13.070;2023-05-14T04:49:49;10.70;99.90
12815;DHT22;6472;52.328;13.070;2023-05-14T04:52:16;10.90;99.90
12815;DHT22;6472;52.328;13.070;2023-05-14T04:54:45;11.10;99.90
12815;DHT22;6472;52.328;13.070;2023-05-14T04:57:13;11.30;99.90
12815;DHT22;6472;52.328;13.070;2023-05-14T04:59:41;11.60;99.90
12815;DHT22;6472;52.328;13.070;2023-05-14T05:02:09;11.90;99.90
12815;DHT22;6472;52.328;13.070;2023-05-14T05:04:38;12.10;99.90
12815;DHT22;6472;52.328;13.070;2023-05-14T05:07:06;12.30;99.90
12815;DHT22;6472;52.328;13.070;2023-05-14T05:09:35;12.60;99.90
12815;DHT22;6472;52.328;13.070;2023-05-14T05:12:03;12.70;99.90
12815;DHT22;6472;52.328;13.070;2023-05-14T05:14:31;13.00;99.90
12815;DHT22;6472;52.328;13.070;2023-05-14T05:16:59;13.30;99.90
12815;DHT22;6472;52.328;13.070;2023-05-14T05:19:27;13.50;99.90
12815;DHT22;6472;52.328;13.070;2023-05-14T05:22:11;13.70;99.90
12815;DHT22;6472;52.328;13.070;2023-05-14T05:24:39;14.10;99.90
12815;DHT22;6472;52.328;13.070;2023-05-14T05:27:07;14.30;99.90
12815;DHT22;6472;52.328;13.070;2023-05-14T05:29:35;14.40;99.90
12815;DHT22;6472;52.328;13.070;2023-05-14T05:32:04;14.50;99.90
12815;DHT22;6472;52.328;13.070;2023-05-14T05:34:32;14.60;99.90
12815;DHT22;6472;52.328;13.070;2023-05-14T05:37:00;14.80;99.90
12815;DHT22;6472;52.328;13.070;2023-05-14T05:39:30;14.90;99.90
12815;DHT22;6472;52.328;13.070;2023-05-14T05:42:01;15.10;99.90
12815;DHT22;6472;52.328;13.070;2023-05-14T05:44:29;15.30;99.90
12815;DHT22;6472;52.328;13.070;2023-05-14T05:46:57;15.50;99.90
12815;DHT22;6472;52.328;13.070;2023-05-14T05:49:25;15.50;99.90
12815;DHT22;6472;52.328;13.070;2023-05-14T05:51:53;15.60;99.90
12815;DHT22;6472;52.328;13.070;2023-05-14T05:54:22;15.80;99.90
12815;DHT22;6472;52.328;13.070;2023-05-14T05:56:52;16.10;99.90
12815;DHT22;6472;52.328;13.070;2023-05-14T05:59:20;16.20;99.90
12815;DHT22;6472;52.328;13.070;2023-05-14T06:01:48;16.30;99.90
12815;DHT22;6472;52.328;13.070;2023-05-14T06:04:16;16.20;99.90
12815;DHT22;6472;52.328;13.070;2023-05-14T06:06:44;16.20;99.90
12815;DHT22;6472;52.328;13.070;2023-05-14T06:09:12;16.10;99.90
12815;DHT22;6472;52.328;13.070;2023-05-14T06:11:40;16.00;99.90
12815;DHT22;6472;52.328;13.070;2023-05-14T06:14:10;15.80;99.90
12815;DHT22;6472;52.328;13.070;2023-05-14T06:16:38;15.60;99.90
12815;DHT22;6472;52.328;13.070;2023-05-14T06:19:06;15.60;99.90
12815;DHT22;6472;52.328;13.070;2023-05-14T06:21:34;15.60;99.90
12815;DHT22;6472;52.328;13.070;2023-05-14T06:24:02;15.60;99.90
12815;DHT22;6472;52.328;13.070;2023-05-14T06:26:30;15.80;99.90
12815;DHT22;6472;52.328;13.070;2023-05-14T06:28:58;15.90;99.90
12815;DHT22;6472;52.328;13.070;2023-05-14T06:31:28;16.00;99.90
12815;DHT22;6472;52.328;13.070;2023-05-14T06:33:56;15.90;99.90
12815;DHT22;6472;52.328;13.070;2023-05-14T06:36:24;15.80;99.90
12815;DHT22;6472;52.328;13.070;2023-05-14T06:38:52;15.80;99.90
12815;DHT22;6472;52.328;13.070;2023-05-14T06:41:20;15.70;99.90
12815;DHT22;6472;52.328;13.070;2023-05-14T06:43:48;15.60;99.90
12815;DHT22;6472;52.328;13.070;2023-05-14T06:46:16;15.50;99.90
12815;DHT22;6472;52.328;13.070;2023-05-14T06:48:45;15.60;99.90
12815;DHT22;6472;52.328;13.070;2023-05-14T06:51:13;15.60;99.90
12815;DHT22;6472;52.328;13.070;2023-05-14T06:53:41;15.60;99.90
12815;DHT22;6472;52.328;13.070;2023-05-14T06:56:09;15.70;99.90
12815;DHT22;6472;52.328;13.070;2023-05-14T06:58:38;15.80;99.90
12815;DHT22;6472;52.328;13.070;2023-05-14T07:01:06;15.90;99.50
12815;DHT22;6472;52.328;13.070;2023-05-14T07:03:34;15.90;98.40
12815;DHT22;6472;52.328;13.070;2023-05-14T07:06:04;16.00;99.30
12815;DHT22;6472;52.328;13.070;2023-05-14T07:08:33;16.00;99.30
12815;DHT22;6472;52.328;13.070;2023-05-14T07:11:01;16.10;99.20
12815;DHT22;6472;52.328;13.070;2023-05-14T07:13:29;16.20;98.70
12815;DHT22;6472;52.328;13.070;2023-05-14T07:15:57;16.30;98.80
12815;DHT22;6472;52.328;13.070;2023-05-14T07:18:25;16.30;98.00
12815;DHT22;6472;52.328;13.070;2023-05-14T07:20:53;16.50;98.00
12815;DHT22;6472;52.328;13.070;2023-05-14T07:23:23;16.50;96.30
12815;DHT22;6472;52.328;13.070;2023-05-14T07:25:51;16.60;95.10
12815;DHT22;6472;52.328;13.070;2023-05-14T07:28:19;16.50;94.80
12815;DHT22;6472;52.328;13.070;2023-05-14T07:30:47;16.50;95.50
12815;DHT22;6472;52.328;13.070;2023-05-14T07:33:15;16.60;95.30
12815;DHT22;6472;52.328;13.070;2023-05-14T07:35:42;16.60;97.10
12815;DHT22;6472;52.328;13.070;2023-05-14T07:38:10;16.80;94.60
12815;DHT22;6472;52.328;13.070;2023-05-14T07:40:40;17.00;95.00
12815;DHT22;6472;52.328;13.070;2023-05-14T07:43:09;17.20;95.20
12815;DHT22;6472;52.328;13.070;2023-05-14T07:45:37;17.50;93.80
12815;DHT22;6472;52.328;13.070;2023-05-14T07:48:05;17.60;93.70
12815;DHT22;6472;52.328;13.070;2023-05-14T07:50:33;17.90;93.50
12815;DHT22;6472;52.328;13.070;2023-05-14T07:53:01;18.10;91.30
12815;DHT22;6472;52.328;13.070;2023-05-14T07:55:29;18.20;91.40
12815;DHT22;6472;52.328;13.070;2023-05-14T07:57:59;18.40;91.00
12815;DHT22;6472;52.328;13.070;2023-05-14T08:00:27;18.50;92.10
12815;DHT22;6472;52.328;13.070;2023-05-14T08:02:55;18.80;92.80
12815;DHT22;6472;52.328;13.070;2023-05-14T08:05:23;19.00;90.60
12815;DHT22;6472;52.328;13.070;2023-05-14T08:07:52;19.10;87.70
12815;DHT22;6472;52.328;13.070;2023-05-14T08:10:20;19.20;88.40
12815;DHT22;6472;52.328;13.070;2023-05-14T08:12:48;19.50;82.40
12815;DHT22;6472;52.328;13.070;2023-05-14T08:15:18;19.50;85.40
12815;DHT22;6472;52.328;13.070;2023-05-14T08:17:46;19.70;84.00
12815;DHT22;6472;52.328;13.070;2023-05-14T08:20:13;20.10;85.10
12815;DHT22;6472;52.328;13.070;2023-05-14T08:22:41;20.40;80.80
12815;DHT22;6472;52.328;13.070;2023-05-14T08:25:09;20.40;79.80
12815;DHT22;6472;52.328;13.070;2023-05-14T08:27:38;20.50;74.90
12815;DHT22;6472;52.328;13.070;2023-05-14T08:30:07;20.40;74.50
12815;DHT22;6472;52.328;13.070;2023-05-14T08:32:36;20.40;74.50
12815;DHT22;6472;52.328;13.070;2023-05-14T08:35:05;20.20;75.10
12815;DHT22;6472;52.328;13.070;2023-05-14T08:37:33;20.30;75.70
12815;DHT22;6472;52.328;13.070;2023-05-14T08:40:02;20.40;73.70
12815;DHT22;6472;52.328;13.070;2023-05-14T08:42:30;20.50;71.60
12815;DHT22;6472;52.328;13.070;2023-05-14T08:45:00;20.50;75.00
12815;DHT22;6472;52.328;13.070;2023-05-14T08:47:29;20.50;72.20
12815;DHT22;6472;52.328;13.070;2023-05-14T08:50:01;20.60;72.80
12815;DHT22;6472;52.328;13.070;2023-05-14T08:52:30;20.90;74.50
12815;DHT22;6472;52.328;13.070;2023-05-14T08:55:00;21.20;68.00
12815;DHT22;6472;52.328;13.070;2023-05-14T08:57:31;21.20;65.40
12815;DHT22;6472;52.328;13.070;2023-05-14T09:00:00;21.20;67.10
12815;DHT22;6472;52.328;13.070;2023-05-14T09:02:33;21.20;70.60
12815;DHT22;6472;52.328;13.070;2023-05-14T09:05:03;21.40;67.70
12815;DHT22;6472;52.328;13.070;2023-05-14T09:07:33;21.60;63.80
12815;DHT22;6472;52.328;13.070;2023-05-14T09:10:01;21.80;66.00
12815;DHT22;6472;52.328;13.070;2023-05-14T09:12:29;21.80;68.40
12815;DHT22;6472;52.328;13.070;2023-05-14T09:14:57;22.10;63.30
12815;DHT22;6472;52.328;13.070;2023-05-14T09:17:26;22.20;63.70
12815;DHT22;6472;52.328;13.070;2023-05-14T09:19:55;22.30;62.30
12815;DHT22;6472;52.328;13.070;2023-05-14T09:22:24;22.40;62.50
12815;DHT22;6472;52.328;13.070;2023-05-14T09:25:04;22.40;58.40
12815;DHT22;6472;52.328;13.070;2023-05-14T09:27:33;22.40;58.20
12815;DHT22;6472;52.328;13.070;2023-05-14T09:30:06;22.30;60.00
12815;DHT22;6472;52.328;13.070;2023-05-14T09:32:36;22.30;60.70
12815;DHT22;6472;52.328;13.070;2023-05-14T09:35:11;22.20;59.30
12815;DHT22;6472;52.328;13.070;2023-05-14T09:37:42;21.90;56.70
12815;DHT22;6472;52.328;13.070;2023-05-14T09:40:11;21.90;61.00
12815;DHT22;6472;52.328;13.070;2023-05-14T09:42:39;21.80;56.60
12815;DHT22;6472;52.328;13.070;2023-05-14T09:45:08;21.70;57.00
12815;DHT22;6472;52.328;13.070;2023-05-14T09:47:37;21.70;57.90
12815;DHT22;6472;52.328;13.070;2023-05-14T09:50:06;21.70;57.40
12815;DHT22;6472;52.328;13.070;2023-05-14T09:52:34;21.90;56.70
12815;DHT22;6472;52.328;13.070;2023-05-14T09:55:05;21.90;56.70
12815;DHT22;6472;52.328;13.070;2023-05-14T09:57:33;21.80;55.60
12815;DHT22;6472;52.328;13.070;2023-05-14T10:00:03;21.80;56.90
12815;DHT22;6472;52.328;13.070;2023-05-14T10:02:35;21.80;55.10
12815;DHT22;6472;52.328;13.070;2023-05-14T10:05:05;21.60;56.90
12815;DHT22;6472;52.328;13.070;2023-05-14T10:07:38;21.70;58.20
12815;DHT22;6472;52.328;13.070;2023-05-14T10:10:11;21.70;58.10
12815;DHT22;6472;52.328;13.070;2023-05-14T10:12:40;21.90;54.50
12815;DHT22;6472;52.328;13.070;2023-05-14T10:15:15;21.90;54.00
12815;DHT22;6472;52.328;13.070;2023-05-14T10:17:48;21.90;55.00
12815;DHT22;6472;52.328;13.070;2023-05-14T10:20:19;22.00;52.80
12815;DHT22;6472;52.328;13.070;2023-05-14T10:22:50;22.00;55.20
12815;DHT22;6472;52.328;13.070;2023-05-14T10:25:20;22.00;55.90
12815;DHT22;6472;52.328;13.070;2023-05-14T10:27:48;21.70;52.40
12815;DHT22;6472;52.328;13.070;2023-05-14T10:30:20;21.50;54.60
12815;DHT22;6472;52.328;13.070;2023-05-14T10:32:48;21.30;54.00
12815;DHT22;6472;52.328;13.070;2023-05-14T10:35:18;21.10;53.30
12815;DHT22;6472;52.328;13.070;2023-05-14T10:37:51;21.20;54.30
12815;DHT22;6472;52.328;13.070;2023-05-14T10:40:22;21.30;54.50
12815;DHT22;6472;52.328;13.070;2023-05-14T10:42:52;21.50;54.90
12815;DHT22;6472;52.328;13.070;2023-05-14T10:45:21;21.60;55.10
12815;DHT22;6472;52.328;13.070;2023-05-14T10:47:50;21.80;54.10
12815;DHT22;6472;52.328;13.070;2023-05-14T10:50:19;21.90;53.20
12815;DHT22;6472;52.328;13.070;2023-05-14T10:52:50;21.90;52.60
12815;DHT22;6472;52.328;13.070;2023-05-14T10:55:20;21.80;53.90
12815;DHT22;6472;52.328;13.070;2023-05-14T10:57:48;21.70;54.20
12815;DHT22;6472;52.328;13.070;2023-05-14T11:00:16;21.70;53.30
12815;DHT22;6472;52.328;13.070;2023-05-14T11:02:45;21.60;54.50
12815;DHT22;6472;52.328;13.070;2023-05-14T11:05:14;21.60;55.10
12815;DHT22;6472;52.328;13.070;2023-05-14T11:07:44;21.60;53.10
12815;DHT22;6472;52.328;13.070;2023-05-14T11:10:13;21.50;53.10
12815;DHT22;6472;52.328;13.070;2023-05-14T11:12:44;21.40;52.70
12815;DHT22;6472;52.328;13.070;2023-05-14T11:15:15;21.30;52.50
12815;DHT22;6472;52.328;13.070;2023-05-14T11:17:45;21.10;54.30
12815;DHT22;6472;52.328;13.070;2023-05-14T11:20:14;20.90;54.30
12815;DHT22;6472;52.328;13.070;2023-05-14T11:22:43;20.90;53.90
12815;DHT22;6472;52.328;13.070;2023-05-14T11:25:12;20.90;53.90
12815;DHT22;6472;52.328;13.070;2023-05-14T11:27:43;20.90;54.30
12815;DHT22;6472;52.328;13.070;2023-05-14T11:30:13;20.90;54.80
12815;DHT22;6472;52.328;13.070;2023-05-14T11:32:43;21.00;57.60
12815;DHT22;6472;52.328;13.070;2023-05-14T11:35:11;21.20;55.10
12815;DHT22;6472;52.328;13.070;2023-05-14T11:37:41;21.40;56.30
12815;DHT22;6472;52.328;13.070;2023-05-14T11:40:14;21.60;53.30
12815;DHT22;6472;52.328;13.070;2023-05-14T11:42:44;21.70;54.40
12815;DHT22;6472;52.328;13.070;2023-05-14T11:45:12;21.70;55.40
12815;DHT22;6472;52.328;13.070;2023-05-14T11:47:41;21.70;53.80
12815;DHT22;6472;52.328;13.070;2023-05-14T11:50:09;21.60;53.50
12815;DHT22;6472;52.328;13.070;2023-05-14T11:52:39;21.50;54.00
12815;DHT22;6472;52.328;13.070;2023-05-14T11:55:10;21.40;54.80
12815;DHT22;6472;52.328;13.070;2023-05-14T11:57:38;21.20;54.40
12815;DHT22;6472;52.328;13.070;2023-05-14T12:00:10;21.10;54.80
12815;DHT22;6472;52.328;13.070;2023-05-14T12:02:39;21.20;55.30
12815;DHT22;6472;52.328;13.070;2023-05-14T12:05:11;21.10;54.40
12815;DHT22;6472;52.328;13.070;2023-05-14T12:07:39;21.00;56.00
12815;DHT22;6472;52.328;13.070;2023-05-14T12:10:10;21.00;55.60
12815;DHT22;6472;52.328;13.070;2023-05-14T12:12:38;21.00;54.90
12815;DHT22;6472;52.328;13.070;2023-05-14T12:15:14;21.00;53.90
12815;DHT22;6472;52.328;13.070;2023-05-14T12:17:48;21.00;54.20
12815;DHT22;6472;52.328;13.070;2023-05-14T12:20:17;21.00;54.90
12815;DHT22;6472;52.328;13.070;2023-05-14T12:22:45;20.90;54.60
12815;DHT22;6472;52.328;13.070;2023-05-14T12:25:13;20.90;55.10
12815;DHT22;6472;52.328;13.070;2023-05-14T12:27:44;20.90;55.90
12815;DHT22;6472;52.328;13.070;2023-05-14T12:30:13;20.80;56.00
12815;DHT22;6472;52.328;13.070;2023-05-14T12:32:47;20.70;56.00
12815;DHT22;6472;52.328;13.070;2023-05-14T12:35:17;20.90;56.20
12815;DHT22;6472;52.328;13.070;2023-05-14T12:37:45;21.00;56.20
12815;DHT22;6472;52.328;13.070;2023-05-14T12:40:13;20.90;56.80
12815;DHT22;6472;52.328;13.070;2023-05-14T12:42:41;20.90;55.90
12815;DHT22;6472;52.328;13.070;2023-05-14T12:45:11;20.90;57.00
12815;DHT22;6472;52.328;13.070;2023-05-14T12:47:40;20.90;57.40
12815;DHT22;6472;52.328;13.070;2023-05-14T12:50:08;20.90;55.70
12815;DHT22;6472;52.328;13.070;2023-05-14T12:52:36;20.90;55.60
12815;DHT22;6472;52.328;13.070;2023-05-14T12:55:06;21.00;54.90
12815;DHT22;6472;52.328;13.070;2023-05-14T12:57:35;21.20;54.50
12815;DHT22;6472;52.328;13.070;2023-05-14T13:00:06;21.60;55.70
12815;DHT22;6472;52.328;13.070;2023-05-14T13:02:48;22.10;55.50
12815;DHT22;6472;52.328;13.070;2023-05-14T13:05:16;22.50;54.10
12815;DHT22;6472;52.328;13.070;2023-05-14T13:07:44;22.90;53.40
12815;DHT22;6472;52.328;13.070;2023-05-14T13:10:12;23.00;51.70
12815;DHT22;6472;52.328;13.070;2023-05-14T13:12:39;22.70;51.20
12815;DHT22;6472;52.328;13.070;2023-05-14T13:15:08;22.40;51.60
12815;DHT22;6472;52.328;13.070;2023-05-14T13:17:37;22.20;51.70
12815;DHT22;6472;52.328;13.070;2023-05-14T13:20:08;22.00;52.60
12815;DHT22;6472;52.328;13.070;2023-05-14T13:22:36;21.70;52.40
12815;DHT22;6472;52.328;13.070;2023-05-14T13:25:05;21.40;53.60
12815;DHT22;6472;52.328;13.070;2023-05-14T13:27:33;21.20;54.60
12815;DHT22;6472;52.328;13.070;2023-05-14T13:30:02;21.00;54.80
12815;DHT22;6472;52.328;13.070;2023-05-14T13:32:30;20.80;55.40
12815;DHT22;6472;52.328;13.070;2023-05-14T13:34:59;20.60;55.70
12815;DHT22;6472;52.328;13.070;2023-05-14T13:37:28;20.50;55.50
12815;DHT22;6472;52.328;13.070;2023-05-14T13:39:56;20.50;55.50
12815;DHT22;6472;52.328;13.070;2023-05-14T13:42:24;20.40;56.30
12815;DHT22;6472;52.328;13.070;2023-05-14T13:44:52;20.30;55.90
12815;DHT22;6472;52.328;13.070;2023-05-14T13:47:22;20.30;55.40
12815;DHT22;6472;52.328;13.070;2023-05-14T13:49:50;20.30;55.30
12815;DHT22;6472;52.328;13.070;2023-05-14T13:52:18;20.30;55.50
12815;DHT22;6472;52.328;13.070;2023-05-14T13:54:48;20.20;56.30
12815;DHT22;6472;52.328;13.070;2023-05-14T13:57:16;20.20;56.70
12815;DHT22;6472;52.328;13.070;2023-05-14T13:59:45;20.10;57.10
12815;DHT22;6472;52.328;13.070;2023-05-14T14:02:14;20.20;56.00
12815;DHT22;6472;52.328;13.070;2023-05-14T14:04:42;20.20;56.60
12815;DHT22;6472;52.328;13.070;2023-05-14T14:07:10;20.20;56.90
12815;DHT22;6472;52.328;13.070;2023-05-14T14:09:38;20.20;58.90
12815;DHT22;6472;52.328;13.070;2023-05-14T14:12:08;20.30;57.90
12815;DHT22;6472;52.328;13.070;2023-05-14T14:14:36;20.30;58.10
12815;DHT22;6472;52.328;13.070;2023-05-14T14:17:04;20.40;57.90
12815;DHT22;6472;52.328;13.070;2023-05-14T14:19:34;20.60;57.30
12815;DHT22;6472;52.328;13.070;2023-05-14T14:22:02;20.60;56.60
12815;DHT22;6472;52.328;13.070;2023-05-14T14:24:30;20.60;56.00
12815;DHT22;6472;52.328;13.070;2023-05-14T14:26:58;20.50;56.10
12815;DHT22;6472;52.328;13.070;2023-05-14T14:29:29;20.40;56.50
12815;DHT22;6472;52.328;13.070;2023-05-14T14:31:58;20.20;56.20
12815;DHT22;6472;52.328;13.070;2023-05-14T14:34:26;20.10;58.30
12815;DHT22;6472;52.328;13.070;2023-05-14T14:36:54;20.00;56.50
12815;DHT22;6472;52.328;13.070;2023-05-14T14:39:22;19.80;56.50
12815;DHT22;6472;52.328;13.070;2023-05-14T14:41:51;19.60;58.00
12815;DHT22;6472;52.328;13.070;2023-05-14T14:44:19;19.50;57.10
12815;DHT22;6472;52.328;13.070;2023-05-14T14:46:48;19.40;56.60
12815;DHT22;6472;52.328;13.070;2023-05-14T14:49:16;19.30;56.70
12815;DHT22;6472;52.328;13.070;2023-05-14T14:51:44;19.30;57.30
12815;DHT22;6472;52.328;13.070;2023-05-14T14:54:12;19.30;57.60
12815;DHT22;6472;52.328;13.070;2023-05-14T14:56:40;19.30;58.20
12815;DHT22;6472;52.328;13.070;2023-05-14T14:59:09;19.40;58.70
12815;DHT22;6472;52.328;13.070;2023-05-14T15:01:36;19.50;58.00
12815;DHT22;6472;52.328;13.070;2023-05-14T15:04:06;19.60;57.20
12815;DHT22;6472;52.328;13.070;2023-05-14T15:06:34;19.70;57.60
12815;DHT22;6472;52.328;13.070;2023-05-14T15:09:02;19.80;57.60
12815;DHT22;6472;52.328;13.070;2023-05-14T15:11:30;19.80;58.20
12815;DHT22;6472;52.328;13.070;2023-05-14T15:13:58;19.90;59.40
12815;DHT22;6472;52.328;13.070;2023-05-14T15:16:26;20.00;57.20
12815;DHT22;6472;52.328;13.070;2023-05-14T15:18:54;20.10;57.50
12815;DHT22;6472;52.328;13.070;2023-05-14T15:21:23;20.20;58.00
12815;DHT22;6472;52.328;13.070;2023-05-14T15:23:51;20.20;57.20
12815;DHT22;6472;52.328;13.070;2023-05-14T15:26:19;20.20;56.60
12815;DHT22;6472;52.328;13.070;2023-05-14T15:28:48;20.30;57.60
12815;DHT22;6472;52.328;13.070;2023-05-14T15:31:16;20.50;56.80
12815;DHT22;6472;52.328;13.070;2023-05-14T15:33:44;20.50;57.00
12815;DHT22;6472;52.328;13.070;2023-05-14T15:36:12;20.60;57.50
12815;DHT22;6472;52.328;13.070;2023-05-14T15:38:42;20.50;55.80
12815;DHT22;6472;52.328;13.070;2023-05-14T15:41:10;20.50;57.90
12815;DHT22;6472;52.328;13.070;2023-05-14T15:43:38;20.60;57.00
12815;DHT22;6472;52.328;13.070;2023-05-14T15:46:06;20.70;57.40